Time;durP1;ratioP1;P1;durP2;ratioP2;P2;SDS_P1;SDS_P2;PMS_P1;PMS_P2;Temp;Humidity;BMP_temperature;BMP_pressure;BME280_temperature;BME280_humidity;BME280_pressure;Samples;Min_cycle;Max_cycle;Signal;HPM_P1;HPM_P2
2024/02/09 00:00:00;;;;;;;5.93;4.78;;;4.10;86.70;;;;;;9174640;19;20457;-65
2024/02/09 00:03:21;;;;;;;6.40;5.35;;;4.20;86.90;;;;;;9172684;19;20021;-66
2024/02/09 00:06:26;;;;;;;6.47;5.15;;;4.20;86.80;;;;;;9170688;19;20007;-66
2024/02/09 00:09:34;;;;;;;7.57;5.00;;;4.20;86.80;;;;;;9174118;19;20373;-66
2024/02/09 00:12:40;;;;;;;6.57;5.35;;;4.20;86.80;;;;;;9174375;19;20022;-66
2024/02/09 00:15:49;;;;;;;6.63;5.43;;;4.20;86.80;;;;;;9174225;19;20018;-66
2024/02/09 00:18:57;;;;;;;7.28;5.45;;;4.20;86.70;;;;;;9174673;19;20015;-66
2024/02/09 00:22:05;;;;;;;6.53;5.20;;;4.30;86.80;;;;;;9173269;19;20026;-66
2024/02/09 00:25:11;;;;;;;7.68;5.90;;;4.30;86.80;;;;;;9174368;19;20501;-66
2024/02/09 00:28:19;;;;;;;8.63;5.72;;;4.30;86.70;;;;;;9172662;19;20057;-66
2024/02/09 00:31:25;;;;;;;9.07;6.68;;;4.30;86.90;;;;;;9172968;19;20514;-68
2024/02/09 00:34:35;;;;;;;9.32;6.75;;;4.30;86.90;;;;;;9173673;19;20015;-65
2024/02/09 00:37:41;;;;;;;7.78;6.10;;;4.30;86.80;;;;;;9172526;19;20048;-65
2024/02/09 00:40:48;;;;;;;8.50;6.13;;;4.40;86.80;;;;;;9173941;19;20057;-66
2024/02/09 00:43:55;;;;;;;8.73;6.55;;;4.40;86.90;;;;;;9171615;19;20021;-66
2024/02/09 00:47:04;;;;;;;9.77;6.72;;;4.40;86.80;;;;;;9173016;19;20412;-66
2024/02/09 00:50:12;;;;;;;9.68;6.55;;;4.40;87.00;;;;;;9173690;19;20014;-66
2024/02/09 00:53:20;;;;;;;9.27;6.95;;;4.40;86.90;;;;;;9173483;19;20026;-66
2024/02/09 00:56:26;;;;;;;9.98;7.13;;;4.40;87.00;;;;;;9172960;19;20483;-66
2024/02/09 00:59:36;;;;;;;9.40;6.95;;;4.50;87.00;;;;;;9173804;19;20034;-67
2024/02/09 01:02:43;;;;;;;10.45;7.20;;;4.50;87.00;;;;;;9170575;19;20011;-66
2024/02/09 01:05:53;;;;;;;13.23;7.35;;;4.50;87.10;;;;;;9168100;19;20021;-66
2024/02/09 01:08:59;;;;;;;10.02;7.30;;;4.50;87.10;;;;;;9176833;19;20017;-65
2024/02/09 02:45:20;;;;;;;15.90;9.70;;;5.40;87.70;;;;;;9177585;19;20014;-66
2024/02/09 03:05:04;;;;;;;20.90;9.93;;;5.70;88.00;;;;;;9171800;19;20021;-66
2024/02/09 03:08:10;;;;;;;18.08;9.98;;;5.70;88.10;;;;;;9174750;19;20011;-67
2024/02/09 03:11:38;;;;;;;17.17;10.13;;;5.80;88.60;;;;;;9175916;19;20021;-66
2024/02/09 03:14:44;;;;;;;16.25;9.70;;;5.80;88.00;;;;;;9176980;19;20019;-66
2024/02/09 03:17:54;;;;;;;18.00;10.60;;;5.90;88.20;;;;;;9174839;19;20006;-66
2024/02/09 03:21:00;;;;;;;23.38;10.20;;;5.90;88.30;;;;;;9175849;19;20014;-67
2024/02/09 03:24:08;;;;;;;21.90;10.52;;;6.00;88.20;;;;;;9174542;19;20033;-66
2024/02/09 03:27:13;;;;;;;17.80;9.80;;;6.00;88.20;;;;;;9176563;19;20043;-66
2024/02/09 03:30:22;;;;;;;23.85;10.85;;;6.10;88.30;;;;;;9174151;19;20011;-66
2024/02/09 03:33:30;;;;;;;21.23;9.52;;;6.10;88.30;;;;;;9175156;19;20006;-66
2024/02/09 03:36:38;;;;;;;19.52;10.32;;;6.20;88.30;;;;;;9175650;19;20468;-66
2024/02/09 03:39:43;;;;;;;18.85;10.32;;;6.20;88.40;;;;;;9175172;19;20021;-67
2024/02/09 03:42:51;;;;;;;21.70;10.27;;;6.30;88.50;;;;;;9172117;19;20480;-66
2024/02/09 03:45:56;;;;;;;18.35;10.02;;;6.30;88.90;;;;;;9174973;19;20026;-66
2024/02/09 03:49:10;;;;;;;22.17;10.93;;;6.40;88.60;;;;;;9174825;19;20026;-66
2024/02/09 03:52:19;;;;;;;19.98;10.82;;;6.40;88.60;;;;;;9174325;19;20018;-67
2024/02/09 03:55:26;;;;;;;18.27;9.88;;;6.50;88.70;;;;;;9174605;19;20368;-66
2024/02/09 03:58:32;;;;;;;21.90;11.50;;;6.50;88.60;;;;;;9173604;19;20015;-67
2024/02/09 04:01:39;;;;;;;18.45;10.25;;;6.60;88.80;;;;;;9173591;19;20373;-67
2024/02/09 04:04:48;;;;;;;21.10;9.88;;;6.60;88.70;;;;;;9166832;19;20011;-67
2024/02/09 04:07:56;;;;;;;20.27;9.55;;;6.70;88.80;;;;;;9173491;19;20360;-67
2024/02/09 04:11:01;;;;;;;19.55;9.60;;;6.70;88.70;;;;;;9174114;19;20047;-67
2024/02/09 04:14:09;;;;;;;18.73;9.65;;;6.80;88.80;;;;;;9171699;19;20019;-67
2024/02/09 04:17:14;;;;;;;19.88;9.98;;;6.80;88.80;;;;;;9174497;19;20489;-67
2024/02/09 04:20:26;;;;;;;17.42;9.63;;;6.80;88.70;;;;;;9172355;19;20011;-67
2024/02/09 04:23:32;;;;;;;26.75;10.13;;;6.90;89.30;;;;;;9172466;19;20010;-67
2024/02/09 04:26:40;;;;;;;18.88;9.63;;;7.00;88.80;;;;;;9173961;19;20023;-67
2024/02/09 04:29:46;;;;;;;20.15;9.77;;;7.00;89.00;;;;;;9174353;19;20015;-67
2024/02/09 04:32:53;;;;;;;18.48;9.18;;;7.10;89.10;;;;;;9174101;19;20021;-67
2024/02/09 04:36:03;;;;;;;28.17;10.43;;;7.20;89.00;;;;;;9173818;19;20635;-67
2024/02/09 04:39:11;;;;;;;27.20;10.75;;;7.20;89.40;;;;;;9172876;19;20018;-67
2024/02/09 04:42:16;;;;;;;27.05;9.95;;;7.30;89.10;;;;;;9178483;19;20014;-67
2024/02/09 04:45:24;;;;;;;26.73;9.80;;;7.40;89.30;;;;;;9179746;19;20022;-67
2024/02/09 04:48:29;;;;;;;27.48;9.77;;;7.50;89.60;;;;;;9181763;19;20021;-66
2024/02/09 04:51:41;;;;;;;27.17;9.88;;;7.60;90.10;;;;;;9182714;19;20025;-67
2024/02/09 04:54:51;;;;;;;29.85;9.93;;;7.70;90.00;;;;;;9181520;19;20472;-67
2024/02/09 04:57:59;;;;;;;28.73;10.25;;;7.90;90.00;;;;;;9182333;19;20025;-67
2024/02/09 05:01:05;;;;;;;27.90;9.43;;;8.00;90.00;;;;;;9182767;19;20378;-67
2024/02/09 05:04:14;;;;;;;27.83;9.68;;;8.20;90.10;;;;;;9175440;19;20125;-67
2024/02/09 05:07:23;;;;;;;25.75;8.88;;;8.40;90.10;;;;;;9179737;19;20508;-66
2024/02/09 05:10:30;;;;;;;26.58;9.13;;;8.50;90.10;;;;;;9178681;19;20416;-66
2024/02/09 05:13:37;;;;;;;35.35;8.85;;;8.70;90.20;;;;;;9180928;19;20026;-66
2024/02/09 05:16:45;;;;;;;24.98;8.93;;;8.80;90.30;;;;;;9180911;19;20017;-66
2024/02/09 05:19:51;;;;;;;20.02;7.38;;;8.80;90.20;;;;;;9181782;19;20131;-67
2024/02/09 05:23:01;;;;;;;22.42;8.38;;;9.00;90.20;;;;;;9181187;19;20555;-67
2024/02/09 05:26:07;;;;;;;23.73;6.95;;;9.00;90.20;;;;;;9176555;19;20010;-67
2024/02/09 05:29:14;;;;;;;17.20;7.13;;;9.10;90.20;;;;;;9180919;19;20021;-67
2024/02/09 05:32:22;;;;;;;21.98;6.35;;;9.10;90.10;;;;;;9181147;19;20024;-67
2024/02/09 05:35:30;;;;;;;24.92;6.65;;;9.30;90.20;;;;;;9179585;19;20018;-67
2024/02/09 05:38:38;;;;;;;15.27;6.03;;;9.40;90.20;;;;;;9179791;19;20549;-67
2024/02/09 05:41:45;;;;;;;14.05;5.28;;;9.40;90.20;;;;;;9181657;19;20035;-67
2024/02/09 05:44:51;;;;;;;18.00;5.28;;;9.50;90.30;;;;;;9180172;19;20039;-67
2024/02/09 05:47:59;;;;;;;12.90;5.10;;;9.60;90.30;;;;;;9179799;19;20019;-67
2024/02/09 05:51:04;;;;;;;15.73;4.95;;;9.60;90.50;;;;;;9180470;19;20022;-68
2024/02/09 05:54:15;;;;;;;12.55;4.63;;;9.60;90.20;;;;;;9178126;19;20480;-67
2024/02/09 05:57:20;;;;;;;16.17;5.38;;;9.80;90.40;;;;;;9179658;19;20503;-67
2024/02/09 06:00:28;;;;;;;12.02;4.75;;;9.80;90.30;;;;;;9180110;19;20026;-68
2024/02/09 06:03:34;;;;;;;12.90;4.82;;;9.80;90.30;;;;;;9179660;19;20033;-68
2024/02/09 06:06:45;;;;;;;13.50;4.93;;;9.80;90.30;;;;;;9171786;19;20011;-67
2024/02/09 06:09:53;;;;;;;14.20;4.90;;;10.00;90.30;;;;;;9178243;19;20018;-67
2024/02/09 06:13:04;;;;;;;12.32;4.82;;;9.90;90.30;;;;;;9187134;19;20781;-68
2024/02/09 06:16:19;;;;;;;15.98;4.40;;;10.00;90.20;;;;;;9182284;19;20014;-68
2024/02/09 06:19:26;;;;;;;17.95;5.65;;;10.00;90.20;;;;;;9178183;19;20026;-67
2024/02/09 06:22:32;;;;;;;14.30;4.72;;;10.00;90.20;;;;;;9177895;19;20006;-68
2024/02/09 06:25:42;;;;;;;15.88;4.60;;;10.10;90.20;;;;;;9176159;19;20019;-66
2024/02/09 06:28:48;;;;;;;14.45;4.18;;;10.10;90.30;;;;;;9178118;19;20022;-67
2024/02/09 06:31:59;;;;;;;9.45;4.47;;;10.10;90.20;;;;;;9176041;19;20113;-67
2024/02/09 06:35:06;;;;;;;13.02;4.57;;;10.10;90.30;;;;;;9176721;19;20019;-67
2024/02/09 06:38:13;;;;;;;9.23;3.33;;;10.20;90.30;;;;;;9176609;19;20022;-68
2024/02/09 06:41:22;;;;;;;10.75;3.83;;;10.30;90.30;;;;;;9175111;19;20609;-69
2024/02/09 06:44:30;;;;;;;7.53;3.47;;;10.20;90.30;;;;;;9176895;19;20018;-69
2024/02/09 06:47:37;;;;;;;10.48;4.22;;;10.10;90.20;;;;;;9178130;19;20029;-67
2024/02/09 06:50:46;;;;;;;13.80;4.00;;;10.30;90.40;;;;;;9176904;19;20547;-67
2024/02/09 06:53:55;;;;;;;8.30;3.47;;;10.20;90.30;;;;;;9177428;19;20010;-67
2024/02/09 06:57:06;;;;;;;8.93;3.35;;;10.30;90.50;;;;;;9177941;19;20030;-67
2024/02/09 07:00:16;;;;;;;12.15;3.45;;;10.30;90.30;;;;;;9176975;19;20472;-67
2024/02/09 07:03:25;;;;;;;8.23;3.13;;;10.30;90.40;;;;;;9174047;19;20377;-67
2024/02/09 07:06:31;;;;;;;12.55;3.33;;;10.30;90.40;;;;;;9168582;19;20018;-67
2024/02/09 07:09:39;;;;;;;12.10;3.10;;;10.30;90.30;;;;;;9176895;19;20021;-68
2024/02/09 07:12:47;;;;;;;7.32;3.65;;;10.30;90.40;;;;;;9174583;19;20025;-68
2024/02/09 07:15:54;;;;;;;11.82;4.28;;;10.30;90.40;;;;;;9177273;19;20030;-66
2024/02/09 07:19:00;;;;;;;20.35;4.40;;;10.40;90.40;;;;;;9176867;19;20022;-67
2024/02/09 07:22:08;;;;;;;11.23;3.45;;;10.30;90.40;;;;;;9174477;19;20014;-66
2024/02/09 07:25:13;;;;;;;14.32;4.20;;;10.40;90.50;;;;;;9175610;19;20454;-67
2024/02/09 07:28:24;;;;;;;11.93;3.22;;;10.40;90.50;;;;;;9176222;19;20350;-68
2024/02/09 07:31:30;;;;;;;8.93;3.45;;;10.50;90.50;;;;;;9175711;19;20014;-67
2024/02/09 07:34:37;;;;;;;7.45;4.35;;;10.40;90.40;;;;;;9176334;19;20018;-68
2024/02/09 07:37:43;;;;;;;6.63;3.35;;;10.40;90.70;;;;;;9176561;19;20014;-68
2024/02/09 07:40:50;;;;;;;8.02;3.15;;;10.50;90.50;;;;;;9175993;19;20040;-67
2024/02/09 07:44:00;;;;;;;8.63;2.63;;;10.40;90.40;;;;;;9174976;19;20047;-67
2024/02/09 07:47:08;;;;;;;4.45;2.80;;;10.50;90.50;;;;;;9172773;19;20007;-67
2024/02/09 07:50:14;;;;;;;5.90;2.83;;;10.50;90.50;;;;;;9175288;19;20018;-67
2024/02/09 07:53:21;;;;;;;5.53;2.67;;;10.50;90.40;;;;;;9174177;19;20007;-67
2024/02/09 07:56:27;;;;;;;5.25;2.50;;;10.50;90.40;;;;;;9175528;19;20022;-67
2024/02/09 07:59:42;;;;;;;9.98;2.80;;;10.50;90.40;;;;;;9172673;19;20011;-67
2024/02/09 08:02:48;;;;;;;9.13;4.07;;;10.60;90.50;;;;;;9175292;19;20022;-67
2024/02/09 08:05:56;;;;;;;13.43;2.67;;;10.50;90.50;;;;;;9169550;19;20487;-67
2024/02/09 08:09:02;;;;;;;5.93;2.20;;;10.60;90.50;;;;;;9173359;19;20078;-67
2024/02/09 08:12:12;;;;;;;14.18;2.53;;;10.60;90.50;;;;;;9173791;19;20014;-67
2024/02/09 08:15:23;;;;;;;5.85;2.33;;;10.60;90.50;;;;;;9173805;19;20014;-66
2024/02/09 08:18:31;;;;;;;4.40;2.58;;;10.60;90.50;;;;;;9182657;19;20022;-67
2024/02/09 08:21:39;;;;;;;4.50;2.35;;;10.60;90.50;;;;;;9182533;19;20472;-67
2024/02/09 08:24:46;;;;;;;7.25;2.88;;;10.70;90.50;;;;;;9182904;19;20026;-66
2024/02/09 08:27:52;;;;;;;7.05;2.40;;;10.60;90.40;;;;;;9180719;19;20571;-67
2024/02/09 08:31:05;;;;;;;7.57;2.47;;;10.60;90.50;;;;;;9180605;19;20011;-67
2024/02/09 08:34:12;;;;;;;9.60;2.90;;;10.70;90.50;;;;;;9183281;19;20028;-67
2024/02/09 08:37:21;;;;;;;4.32;2.50;;;10.70;90.50;;;;;;9181021;19;20025;-68
2024/02/09 08:40:28;;;;;;;9.85;3.38;;;10.70;90.50;;;;;;9183594;19;20468;-68
2024/02/09 08:43:36;;;;;;;6.20;2.83;;;10.70;90.50;;;;;;9182491;19;20361;-68
2024/02/09 08:46:45;;;;;;;9.43;2.65;;;10.80;90.60;;;;;;9180381;19;20048;-67
2024/02/09 08:49:53;;;;;;;18.75;7.15;;;10.80;90.60;;;;;;9181840;19;20014;-67
2024/02/09 08:52:59;;;;;;;7.15;2.78;;;10.90;90.60;;;;;;9182950;19;20011;-67
2024/02/09 08:56:09;;;;;;;8.70;3.00;;;10.80;90.60;;;;;;9182505;19;20014;-66
2024/02/09 08:59:15;;;;;;;8.32;3.00;;;10.80;90.60;;;;;;9182621;19;20007;-67
2024/02/09 09:02:27;;;;;;;7.57;2.65;;;10.80;90.90;;;;;;9181969;19;20472;-67
2024/02/09 09:05:32;;;;;;;6.88;2.55;;;10.90;90.60;;;;;;9172721;19;20048;-68
2024/02/09 09:08:40;;;;;;;6.90;2.80;;;10.90;90.60;;;;;;9179482;19;20010;-67
2024/02/09 09:11:45;;;;;;;11.20;3.30;;;11.00;90.60;;;;;;9181640;19;20011;-67
2024/02/09 09:14:53;;;;;;;17.33;3.25;;;10.90;90.80;;;;;;9181948;19;20030;-67
2024/02/09 09:18:01;;;;;;;11.77;3.55;;;11.00;90.60;;;;;;9181264;19;20015;-67
2024/02/09 09:21:10;;;;;;;16.20;3.20;;;11.00;90.70;;;;;;9181230;19;20461;-67
2024/02/09 09:24:22;;;;;;;5.88;2.67;;;11.00;90.70;;;;;;9176441;19;20019;-67
2024/02/09 09:27:30;;;;;;;9.40;2.72;;;11.00;90.60;;;;;;9177266;19;20962;-67
2024/02/09 09:30:36;;;;;;;16.38;3.92;;;11.00;90.60;;;;;;9180399;19;20022;-67
2024/02/09 09:33:46;;;;;;;9.93;3.13;;;11.10;91.00;;;;;;9180602;19;20023;-67
2024/02/09 09:36:52;;;;;;;7.68;2.42;;;11.10;90.70;;;;;;9180004;19;20073;-66
2024/02/09 09:40:00;;;;;;;10.32;2.25;;;11.10;90.70;;;;;;9179595;19;20012;-67
2024/02/09 09:43:07;;;;;;;11.35;3.83;;;11.00;90.60;;;;;;9180459;19;20472;-66
2024/02/09 09:46:15;;;;;;;6.47;2.70;;;11.10;90.70;;;;;;9179928;19;20025;-66
2024/02/09 09:49:26;;;;;;;6.25;2.40;;;11.10;90.70;;;;;;9180494;19;20864;-67
2024/02/09 09:52:37;;;;;;;8.70;2.57;;;11.10;90.70;;;;;;9181588;19;20025;-67
2024/02/09 09:55:45;;;;;;;9.25;2.40;;;11.10;90.70;;;;;;9178966;19;20010;-67
2024/02/09 09:58:53;;;;;;;9.40;2.60;;;11.10;90.70;;;;;;9179974;19;20021;-67
2024/02/09 10:01:59;;;;;;;9.32;2.70;;;11.20;90.70;;;;;;9180295;19;20033;-67
2024/02/09 10:05:11;;;;;;;8.82;4.93;;;11.20;90.80;;;;;;9173872;19;20455;-67
2024/02/09 10:08:17;;;;;;;8.55;2.88;;;11.20;90.80;;;;;;9174716;19;20066;-67
2024/02/09 10:11:25;;;;;;;10.88;3.20;;;11.30;90.80;;;;;;9178198;19;20015;-67
2024/02/09 10:14:31;;;;;;;9.43;3.28;;;11.30;90.80;;;;;;9179190;19;20031;-67
2024/02/09 10:17:39;;;;;;;10.15;2.80;;;11.30;90.90;;;;;;9179050;19;20019;-67
2024/02/09 10:20:48;;;;;;;8.20;2.78;;;11.30;90.80;;;;;;9179504;19;20010;-67
2024/02/09 10:23:56;;;;;;;9.95;2.40;;;11.30;90.80;;;;;;9178509;19;20014;-67
2024/02/09 10:27:03;;;;;;;9.27;2.45;;;11.40;90.90;;;;;;9177502;19;20097;-67
2024/02/09 10:30:11;;;;;;;11.18;3.45;;;11.30;90.90;;;;;;9178246;19;20017;-68
2024/02/09 10:33:17;;;;;;;5.72;2.53;;;11.40;90.90;;;;;;9179387;19;20374;-67
2024/02/09 10:36:28;;;;;;;10.55;2.78;;;11.40;90.80;;;;;;9179262;19;20353;-67
2024/02/09 10:39:34;;;;;;;12.43;3.42;;;11.50;90.90;;;;;;9178328;19;20010;-66
2024/02/09 10:42:43;;;;;;;6.82;2.67;;;11.50;90.90;;;;;;9178197;19;20010;-67
2024/02/09 10:45:50;;;;;;;10.68;2.70;;;11.50;90.90;;;;;;9177534;19;20023;-67
2024/02/09 10:49:05;;;;;;;10.88;2.35;;;11.50;90.90;;;;;;9175658;19;20015;-67
2024/02/09 10:52:17;;;;;;;13.70;3.53;;;11.50;90.90;;;;;;9178075;19;20365;-67
2024/02/09 10:55:28;;;;;;;6.45;2.25;;;11.50;90.90;;;;;;9177809;19;20014;-67
2024/02/09 10:58:37;;;;;;;9.98;2.78;;;11.60;90.90;;;;;;9177961;19;20073;-67
2024/02/09 11:01:45;;;;;;;10.43;2.88;;;11.60;90.90;;;;;;9177963;19;20014;-67
2024/02/09 11:04:51;;;;;;;12.63;2.78;;;11.60;90.90;;;;;;9171086;19;20014;-67
2024/02/09 11:08:02;;;;;;;9.02;3.03;;;11.60;90.90;;;;;;9176144;19;20023;-67
2024/02/09 11:11:07;;;;;;;10.45;2.65;;;11.70;90.90;;;;;;9178077;19;20366;-67
2024/02/09 11:14:21;;;;;;;9.15;3.10;;;11.70;91.00;;;;;;9175383;19;20018;-67
2024/02/09 11:17:30;;;;;;;13.23;3.30;;;11.80;91.00;;;;;;9177134;19;20011;-67
2024/02/09 11:20:39;;;;;;;13.95;4.00;;;11.80;91.00;;;;;;9176998;19;20014;-67
2024/02/09 11:23:49;;;;;;;10.00;2.97;;;11.90;91.10;;;;;;9176540;19;20019;-67
2024/02/09 11:26:59;;;;;;;14.40;3.80;;;11.90;91.20;;;;;;9176097;19;20907;-67
2024/02/09 11:30:05;;;;;;;7.18;3.65;;;12.10;91.30;;;;;;9173903;19;20102;-68
2024/02/09 11:33:14;;;;;;;11.85;3.75;;;12.10;91.20;;;;;;9172967;19;20020;-68
2024/02/09 11:36:23;;;;;;;11.07;3.20;;;12.30;91.30;;;;;;9174626;19;20007;-67
2024/02/09 11:39:34;;;;;;;7.03;2.92;;;12.40;91.30;;;;;;9170986;19;20022;-68
2024/02/09 11:42:40;;;;;;;6.90;2.97;;;12.30;91.20;;;;;;9172123;19;20085;-69
2024/02/09 11:45:48;;;;;;;7.20;2.95;;;12.40;91.20;;;;;;9175385;19;20033;-69
2024/02/09 11:48:59;;;;;;;9.60;2.40;;;12.40;91.10;;;;;;9172961;19;20022;-69
2024/02/09 11:52:22;;;;;;;7.45;2.80;;;12.50;91.10;;;;;;9174261;19;20021;-70
2024/02/09 11:55:32;;;;;;;6.88;2.92;;;12.60;91.00;;;;;;9173767;19;20018;-69
2024/02/09 11:58:39;;;;;;;6.72;2.72;;;12.50;91.00;;;;;;9174780;19;20081;-69
2024/02/09 12:01:46;;;;;;;6.00;2.53;;;12.50;91.00;;;;;;9173683;19;20011;-69
2024/02/09 12:04:52;;;;;;;7.53;2.28;;;12.60;91.00;;;;;;9167786;19;20480;-69
2024/02/09 12:08:00;;;;;;;5.22;2.17;;;12.60;90.90;;;;;;9167988;19;20382;-69
2024/02/09 12:11:09;;;;;;;10.73;3.30;;;12.60;90.90;;;;;;9167190;19;20041;-69
2024/02/09 12:14:16;;;;;;;7.85;2.70;;;12.60;90.90;;;;;;9171622;19;20025;-69
2024/02/09 12:17:22;;;;;;;8.18;2.90;;;12.60;90.80;;;;;;9167599;19;20075;-69
2024/02/09 12:20:30;;;;;;;6.45;2.40;;;12.70;91.00;;;;;;9172947;19;20015;-69
2024/02/09 12:23:36;;;;;;;10.88;2.42;;;12.70;90.90;;;;;;9173089;19;20018;-68
2024/02/09 12:26:46;;;;;;;8.45;2.97;;;12.70;90.80;;;;;;9174621;19;20018;-68
2024/02/09 12:29:51;;;;;;;5.53;2.65;;;12.80;90.80;;;;;;9171697;19;20036;-68
2024/02/09 12:33:00;;;;;;;10.15;3.50;;;12.80;90.80;;;;;;9172303;19;20345;-68
2024/02/09 12:36:10;;;;;;;8.40;2.40;;;12.80;90.80;;;;;;9171179;19;20038;-68
2024/02/09 12:39:18;;;;;;;5.40;2.83;;;12.70;90.80;;;;;;9172370;19;20646;-69
2024/02/09 12:42:33;;;;;;;8.10;2.53;;;12.80;90.80;;;;;;9167687;19;20014;-69
2024/02/09 12:45:41;;;;;;;7.90;2.25;;;12.90;90.80;;;;;;9161079;19;20021;-68
2024/02/09 12:48:46;;;;;;;6.65;2.42;;;13.10;90.90;;;;;;9153481;19;20036;-68
2024/02/09 12:51:56;;;;;;;9.02;2.33;;;12.90;90.90;;;;;;9161801;19;20019;-68
2024/02/09 12:55:01;;;;;;;8.77;2.75;;;12.80;90.90;;;;;;9158499;19;21086;-68
2024/02/09 12:58:12;;;;;;;11.32;2.70;;;12.80;90.80;;;;;;9150561;19;20014;-68
2024/02/09 13:01:18;;;;;;;11.15;3.60;;;12.80;90.80;;;;;;9159383;19;20022;-69
2024/02/09 13:04:26;;;;;;;7.00;2.90;;;12.90;90.90;;;;;;9175264;19;20037;-68
2024/02/09 13:07:33;;;;;;;12.45;2.35;;;12.80;90.80;;;;;;9180487;19;20022;-68
2024/02/09 13:10:40;;;;;;;4.05;2.22;;;13.00;90.90;;;;;;9177542;19;20017;-70
2024/02/09 13:13:48;;;;;;;11.80;2.85;;;13.00;90.90;;;;;;9180632;19;20014;-69
2024/02/09 13:16:56;;;;;;;4.38;2.22;;;13.00;90.90;;;;;;9180731;19;20022;-69
2024/02/09 13:20:01;;;;;;;15.82;2.75;;;13.10;90.80;;;;;;9181625;19;20011;-69
2024/02/09 13:23:09;;;;;;;8.48;2.20;;;13.00;90.80;;;;;;9183187;19;20019;-68
2024/02/09 13:26:15;;;;;;;6.82;2.55;;;13.10;90.80;;;;;;9180959;19;20022;-68
2024/02/09 13:29:26;;;;;;;6.35;2.03;;;13.10;90.90;;;;;;9179350;19;20482;-68
2024/02/09 13:32:33;;;;;;;8.45;2.50;;;13.10;90.70;;;;;;9180767;19;20476;-68
2024/02/09 13:35:40;;;;;;;9.05;2.10;;;13.20;90.70;;;;;;9177501;19;20025;-68
2024/02/09 13:38:46;;;;;;;8.98;2.25;;;13.30;90.90;;;;;;9181868;19;20022;-68
2024/02/09 13:41:54;;;;;;;9.52;4.15;;;13.20;90.70;;;;;;9180271;19;20025;-68
2024/02/09 13:45:02;;;;;;;4.18;1.98;;;13.20;90.70;;;;;;9178894;19;20011;-68
2024/02/09 13:48:11;;;;;;;3.95;1.98;;;13.20;90.50;;;;;;9180703;19;20018;-68
2024/02/09 13:51:17;;;;;;;10.18;2.28;;;13.20;90.50;;;;;;9180209;19;20014;-69
2024/02/09 13:54:24;;;;;;;11.43;3.00;;;13.30;90.60;;;;;;9179705;19;20350;-68
2024/02/09 13:57:30;;;;;;;10.27;1.98;;;13.20;90.50;;;;;;9180218;19;20022;-69
2024/02/09 14:00:42;;;;;;;4.85;1.73;;;13.30;90.50;;;;;;9178110;19;20014;-68
2024/02/09 14:03:50;;;;;;;10.57;3.03;;;13.30;90.50;;;;;;9178257;19;20044;-68
2024/02/09 14:07:01;;;;;;;12.13;2.45;;;13.30;90.50;;;;;;9177350;19;20022;-69
2024/02/09 14:10:08;;;;;;;8.52;2.40;;;13.40;90.50;;;;;;9177694;19;20029;-69
2024/02/09 14:13:16;;;;;;;9.18;1.85;;;13.40;90.40;;;;;;9179857;19;20023;-70
2024/02/09 14:16:25;;;;;;;7.07;1.70;;;13.40;90.40;;;;;;9175745;19;20029;-70
2024/02/09 14:19:33;;;;;;;6.47;1.85;;;13.40;90.50;;;;;;9179191;19;20021;-70
2024/02/09 14:22:40;;;;;;;7.55;2.50;;;13.40;90.40;;;;;;9176372;19;20025;-68
2024/02/09 14:25:48;;;;;;;8.80;2.20;;;13.40;90.40;;;;;;9176994;19;20598;-70
2024/02/09 14:28:57;;;;;;;3.00;1.85;;;13.40;90.50;;;;;;9178569;19;20172;-69
2024/02/09 14:32:08;;;;;;;11.40;2.20;;;13.50;90.40;;;;;;9176679;19;20022;-70
2024/02/09 14:35:14;;;;;;;9.23;2.38;;;13.40;90.40;;;;;;9178432;19;20034;-70
2024/02/09 14:38:21;;;;;;;10.30;2.08;;;13.40;90.40;;;;;;9177820;19;20029;-70
2024/02/09 14:41:27;;;;;;;4.35;1.83;;;13.50;90.50;;;;;;9176814;19;20058;-70
2024/02/09 14:44:34;;;;;;;10.85;2.05;;;13.40;90.30;;;;;;9178801;19;20021;-69
2024/02/09 14:47:43;;;;;;;7.55;2.35;;;13.40;90.30;;;;;;9176826;19;20016;-69
2024/02/09 14:50:51;;;;;;;8.10;1.90;;;13.40;90.20;;;;;;9175489;19;20022;-70
2024/02/09 14:53:57;;;;;;;7.40;2.00;;;13.50;90.30;;;;;;9176814;19;20010;-69
2024/02/09 14:57:05;;;;;;;12.00;1.73;;;13.40;90.20;;;;;;9175279;19;20017;-69
2024/02/09 15:00:13;;;;;;;4.72;2.40;;;13.40;90.20;;;;;;9176446;19;20022;-70
2024/02/09 15:03:27;;;;;;;11.23;2.20;;;13.40;90.20;;;;;;9176633;19;20022;-69
2024/02/09 15:06:33;;;;;;;7.43;2.08;;;13.40;90.20;;;;;;9171734;19;20022;-69
2024/02/09 15:09:40;;;;;;;9.82;2.10;;;13.40;90.20;;;;;;9175632;19;20041;-69
2024/02/09 15:12:47;;;;;;;5.60;1.73;;;13.40;90.10;;;;;;9176332;19;20011;-69
2024/02/09 15:15:55;;;;;;;10.35;1.80;;;13.40;90.10;;;;;;9176858;19;20018;-69
2024/02/09 15:19:03;;;;;;;6.65;2.50;;;13.40;90.10;;;;;;9175214;19;20022;-68
2024/02/09 15:22:11;;;;;;;11.07;2.17;;;13.40;90.10;;;;;;9176734;19;20507;-70
2024/02/09 15:25:16;;;;;;;5.60;2.00;;;13.40;90.10;;;;;;9175503;19;20025;-70
2024/02/09 15:28:26;;;;;;;7.18;2.40;;;13.40;90.10;;;;;;9174133;19;20014;-70
2024/02/09 15:31:31;;;;;;;8.88;2.30;;;13.30;90.10;;;;;;9173668;19;20492;-70
2024/02/09 15:34:44;;;;;;;9.00;2.50;;;13.40;90.00;;;;;;9176324;19;20060;-70
2024/02/09 15:37:50;;;;;;;17.00;4.63;;;13.30;90.00;;;;;;9176227;19;20022;-70
2024/02/09 15:40:57;;;;;;;7.60;2.70;;;13.30;89.90;;;;;;9175430;19;20021;-69
2024/02/09 15:44:03;;;;;;;9.93;2.60;;;13.40;90.00;;;;;;9171859;19;20025;-70
2024/02/09 15:47:11;;;;;;;7.55;2.22;;;13.30;89.90;;;;;;9175877;19;20026;-68
2024/02/09 15:50:19;;;;;;;15.10;2.58;;;13.30;89.80;;;;;;9174659;19;20015;-69
2024/02/09 15:53:27;;;;;;;4.93;2.28;;;13.40;90.20;;;;;;9175109;19;20014;-69
2024/02/09 15:56:35;;;;;;;4.40;1.75;;;13.30;90.00;;;;;;9174882;19;20025;-70
2024/02/09 15:59:43;;;;;;;14.93;2.65;;;13.30;89.80;;;;;;9175216;19;20015;-69
2024/02/09 16:02:50;;;;;;;9.20;2.75;;;13.20;89.90;;;;;;9172529;19;20253;-70
2024/02/09 16:06:00;;;;;;;8.40;2.35;;;13.20;90.00;;;;;;9169569;19;20022;-69
2024/02/09 16:09:06;;;;;;;5.80;1.90;;;13.20;89.80;;;;;;9168896;19;20127;-69
2024/02/09 16:12:13;;;;;;;7.15;2.30;;;13.30;90.00;;;;;;9154661;19;20026;-69
2024/02/09 16:15:21;;;;;;;10.38;2.90;;;13.20;89.80;;;;;;9165116;19;20131;-70
2024/02/09 16:18:28;;;;;;;4.72;2.00;;;13.10;89.80;;;;;;9174290;19;20338;-69
2024/02/09 16:21:40;;;;;;;5.78;1.95;;;13.10;89.90;;;;;;9173391;19;20014;-69
2024/02/09 16:24:48;;;;;;;6.35;2.67;;;13.10;89.80;;;;;;9164482;19;20011;-70
2024/02/09 16:27:54;;;;;;;6.97;2.33;;;13.10;89.70;;;;;;9165674;19;20052;-70
2024/02/09 16:31:02;;;;;;;6.40;2.17;;;13.10;89.70;;;;;;9171919;19;20018;-70
2024/02/09 16:34:07;;;;;;;7.72;3.10;;;13.00;89.60;;;;;;9172986;19;20011;-70
2024/02/09 16:37:18;;;;;;;9.57;3.28;;;13.10;89.80;;;;;;9173407;19;20010;-70
2024/02/09 16:40:23;;;;;;;8.63;2.92;;;13.00;89.50;;;;;;9182181;19;20383;-70
2024/02/09 16:43:31;;;;;;;7.03;2.50;;;13.00;89.50;;;;;;9182027;19;20606;-70
2024/02/09 16:46:37;;;;;;;11.57;3.22;;;12.90;89.60;;;;;;9181272;19;20048;-70
2024/02/09 16:49:44;;;;;;;14.80;3.10;;;12.90;90.00;;;;;;9181972;19;20022;-69
2024/02/09 16:52:53;;;;;;;6.63;2.75;;;12.90;89.90;;;;;;9179973;19;20021;-69
2024/02/09 16:56:00;;;;;;;8.63;2.58;;;12.90;89.50;;;;;;9182464;19;20014;-70
2024/02/09 16:59:06;;;;;;;10.38;2.60;;;12.80;89.40;;;;;;9181854;19;20030;-69
2024/02/09 17:02:14;;;;;;;11.95;2.80;;;12.90;89.50;;;;;;9180656;19;20019;-69
2024/02/09 17:05:20;;;;;;;6.32;2.22;;;12.80;89.40;;;;;;9176021;19;20010;-69
2024/02/09 17:08:30;;;;;;;9.10;2.15;;;12.80;89.50;;;;;;9178198;19;20018;-69
2024/02/09 17:11:36;;;;;;;8.57;3.47;;;12.80;89.40;;;;;;9178389;19;20337;-70
2024/02/09 17:14:43;;;;;;;13.32;3.30;;;12.70;89.30;;;;;;9182342;19;20014;-69
2024/02/09 17:17:49;;;;;;;7.15;2.20;;;12.70;89.40;;;;;;9180508;19;20019;-69
2024/02/09 17:20:57;;;;;;;6.28;2.08;;;12.80;89.30;;;;;;9176769;19;20011;-69
2024/02/09 17:24:05;;;;;;;6.82;2.13;;;12.70;89.20;;;;;;9179917;19;20021;-69
2024/02/09 17:27:13;;;;;;;11.90;2.15;;;12.70;89.40;;;;;;9179247;19;20013;-69
2024/02/09 17:30:18;;;;;;;10.13;2.28;;;12.70;89.60;;;;;;9178247;19;20591;-69
2024/02/09 17:33:28;;;;;;;3.85;1.83;;;12.70;89.30;;;;;;9181403;19;20014;-69
2024/02/09 17:36:34;;;;;;;7.90;2.78;;;12.70;89.20;;;;;;9176798;19;20102;-69
2024/02/09 17:39:44;;;;;;;6.10;2.03;;;12.60;89.20;;;;;;9178641;19;20010;-69
2024/02/09 17:42:50;;;;;;;5.97;1.90;;;12.60;89.30;;;;;;9175913;19;20513;-69
2024/02/09 17:45:58;;;;;;;10.10;2.92;;;12.60;89.20;;;;;;9178048;19;20006;-69
2024/02/09 17:49:06;;;;;;;7.13;2.40;;;12.60;89.20;;;;;;9169039;19;20021;-69
2024/02/09 17:52:14;;;;;;;7.53;2.17;;;12.60;89.30;;;;;;9173769;19;20010;-69
2024/02/09 17:55:22;;;;;;;5.40;2.17;;;12.50;89.10;;;;;;9179360;19;20025;-69
2024/02/09 17:58:39;;;;;;;10.15;2.35;;;12.50;89.00;;;;;;9176259;19;20018;-70
2024/02/09 18:01:45;;;;;;;8.82;2.50;;;12.60;89.00;;;;;;9175625;19;20338;-70
2024/02/09 18:04:52;;;;;;;11.38;3.10;;;12.50;89.10;;;;;;9167204;19;20024;-69